sensor_id;sensor_type;location;lat;lon;timestamp;P1;durP1;ratioP1;P2;durP2;ratioP2
44850;SDS011;30583;48.714;9.386;2024-02-14T00:02:15;12.55;;;7.75;;
44850;SDS011;30583;48.714;9.386;2024-02-14T00:04:40;15.30;;;7.88;;
44850;SDS011;30583;48.714;9.386;2024-02-14T00:07:06;12.02;;;6.95;;
44850;SDS011;30583;48.714;9.386;2024-02-14T00:09:31;10.43;;;6.78;;
44850;SDS011;30583;48.714;9.386;2024-02-14T00:11:57;10.70;;;7.20;;
44850;SDS011;30583;48.714;9.386;2024-02-14T00:14:22;12.95;;;7.47;;
44850;SDS011;30583;48.714;9.386;2024-02-14T00:16:49;12.25;;;7.07;;
44850;SDS011;30583;48.714;9.386;2024-02-14T00:19:15;13.10;;;7.13;;
44850;SDS011;30583;48.714;9.386;2024-02-14T00:21:41;12.35;;;7.03;;
44850;SDS011;30583;48.714;9.386;2024-02-14T00:24:07;10.57;;;7.28;;
44850;SDS011;30583;48.714;9.386;2024-02-14T00:26:33;13.45;;;6.88;;
44850;SDS011;30583;48.714;9.386;2024-02-14T00:28:58;10.07;;;6.75;;
44850;SDS011;30583;48.714;9.386;2024-02-14T00:31:24;11.38;;;7.22;;
44850;SDS011;30583;48.714;9.386;2024-02-14T00:33:50;14.43;;;7.88;;
44850;SDS011;30583;48.714;9.386;2024-02-14T00:36:15;11.48;;;7.45;;
44850;SDS011;30583;48.714;9.386;2024-02-14T00:38:41;11.40;;;6.93;;
44850;SDS011;30583;48.714;9.386;2024-02-14T00:41:07;12.80;;;7.00;;
44850;SDS011;30583;48.714;9.386;2024-02-14T00:43:32;12.10;;;7.00;;
44850;SDS011;30583;48.714;9.386;2024-02-14T00:45:58;11.98;;;7.00;;
44850;SDS011;30583;48.714;9.386;2024-02-14T00:48:23;11.90;;;7.15;;
44850;SDS011;30583;48.714;9.386;2024-02-14T00:50:49;10.60;;;6.78;;
44850;SDS011;30583;48.714;9.386;2024-02-14T00:53:14;13.50;;;7.18;;
44850;SDS011;30583;48.714;9.386;2024-02-14T00:55:40;14.02;;;7.30;;
44850;SDS011;30583;48.714;9.386;2024-02-14T00:58:06;12.85;;;7.18;;
44850;SDS011;30583;48.714;9.386;2024-02-14T01:00:31;10.45;;;6.30;;
44850;SDS011;30583;48.714;9.386;2024-02-14T01:02:57;9.25;;;6.63;;
44850;SDS011;30583;48.714;9.386;2024-02-14T01:05:23;13.57;;;6.63;;
44850;SDS011;30583;48.714;9.386;2024-02-14T01:07:49;9.93;;;6.55;;
44850;SDS011;30583;48.714;9.386;2024-02-14T01:10:15;11.40;;;6.18;;
44850;SDS011;30583;48.714;9.386;2024-02-14T01:12:41;12.68;;;6.50;;
44850;SDS011;30583;48.714;9.386;2024-02-14T01:15:07;14.50;;;6.75;;
44850;SDS011;30583;48.714;9.386;2024-02-14T01:17:33;12.02;;;7.50;;
44850;SDS011;30583;48.714;9.386;2024-02-14T01:20:00;9.88;;;6.68;;
44850;SDS011;30583;48.714;9.386;2024-02-14T01:22:27;12.68;;;6.85;;
44850;SDS011;30583;48.714;9.386;2024-02-14T01:24:53;11.57;;;7.10;;
44850;SDS011;30583;48.714;9.386;2024-02-14T01:27:19;11.75;;;6.65;;
44850;SDS011;30583;48.714;9.386;2024-02-14T01:29:47;10.15;;;6.00;;
44850;SDS011;30583;48.714;9.386;2024-02-14T01:32:13;13.30;;;6.65;;
44850;SDS011;30583;48.714;9.386;2024-02-14T01:34:38;12.85;;;6.65;;
44850;SDS011;30583;48.714;9.386;2024-02-14T01:37:04;9.95;;;6.43;;
44850;SDS011;30583;48.714;9.386;2024-02-14T01:39:31;9.93;;;6.43;;
44850;SDS011;30583;48.714;9.386;2024-02-14T01:41:56;10.23;;;6.80;;
44850;SDS011;30583;48.714;9.386;2024-02-14T01:44:22;12.35;;;6.50;;
44850;SDS011;30583;48.714;9.386;2024-02-14T01:46:48;12.50;;;7.40;;
44850;SDS011;30583;48.714;9.386;2024-02-14T01:49:13;9.43;;;5.95;;
44850;SDS011;30583;48.714;9.386;2024-02-14T01:51:42;11.57;;;6.75;;
44850;SDS011;30583;48.714;9.386;2024-02-14T01:54:10;9.57;;;6.88;;
44850;SDS011;30583;48.714;9.386;2024-02-14T01:56:37;10.07;;;6.80;;
44850;SDS011;30583;48.714;9.386;2024-02-14T01:59:04;8.90;;;6.53;;
44850;SDS011;30583;48.714;9.386;2024-02-14T02:01:31;12.82;;;7.07;;
44850;SDS011;30583;48.714;9.386;2024-02-14T02:03:57;11.27;;;6.65;;
44850;SDS011;30583;48.714;9.386;2024-02-14T02:06:23;11.88;;;6.35;;
44850;SDS011;30583;48.714;9.386;2024-02-14T02:08:51;12.32;;;6.75;;
44850;SDS011;30583;48.714;9.386;2024-02-14T02:11:17;9.57;;;5.90;;
44850;SDS011;30583;48.714;9.386;2024-02-14T02:13:42;13.00;;;5.82;;
44850;SDS011;30583;48.714;9.386;2024-02-14T02:16:08;9.95;;;5.72;;
44850;SDS011;30583;48.714;9.386;2024-02-14T02:18:34;8.98;;;6.03;;
44850;SDS011;30583;48.714;9.386;2024-02-14T02:21:00;9.32;;;5.40;;
44850;SDS011;30583;48.714;9.386;2024-02-14T02:23:28;11.52;;;6.50;;
44850;SDS011;30583;48.714;9.386;2024-02-14T02:25:55;10.00;;;5.80;;
44850;SDS011;30583;48.714;9.386;2024-02-14T02:28:20;9.80;;;6.20;;
44850;SDS011;30583;48.714;9.386;2024-02-14T02:30:46;10.63;;;5.75;;
44850;SDS011;30583;48.714;9.386;2024-02-14T02:33:11;11.70;;;6.43;;
44850;SDS011;30583;48.714;9.386;2024-02-14T02:35:37;13.85;;;6.53;;
44850;SDS011;30583;48.714;9.386;2024-02-14T02:38:04;12.70;;;6.53;;
44850;SDS011;30583;48.714;9.386;2024-02-14T02:40:30;10.43;;;6.50;;
44850;SDS011;30583;48.714;9.386;2024-02-14T02:42:56;10.30;;;6.68;;
44850;SDS011;30583;48.714;9.386;2024-02-14T02:45:21;15.35;;;7.60;;
44850;SDS011;30583;48.714;9.386;2024-02-14T02:47:47;10.25;;;6.43;;
44850;SDS011;30583;48.714;9.386;2024-02-14T02:50:13;12.23;;;7.18;;
44850;SDS011;30583;48.714;9.386;2024-02-14T02:52:39;12.52;;;7.07;;
44850;SDS011;30583;48.714;9.386;2024-02-14T02:55:06;11.50;;;6.45;;
44850;SDS011;30583;48.714;9.386;2024-02-14T02:57:32;13.25;;;6.50;;
44850;SDS011;30583;48.714;9.386;2024-02-14T02:59:59;11.27;;;7.03;;
44850;SDS011;30583;48.714;9.386;2024-02-14T03:02:25;10.75;;;5.90;;
44850;SDS011;30583;48.714;9.386;2024-02-14T03:04:51;13.13;;;6.32;;
44850;SDS011;30583;48.714;9.386;2024-02-14T03:07:18;12.43;;;6.85;;
44850;SDS011;30583;48.714;9.386;2024-02-14T03:09:44;10.68;;;6.03;;
44850;SDS011;30583;48.714;9.386;2024-02-14T03:12:10;11.43;;;6.82;;
44850;SDS011;30583;48.714;9.386;2024-02-14T03:14:35;10.75;;;6.10;;
44850;SDS011;30583;48.714;9.386;2024-02-14T03:17:04;9.35;;;6.28;;
44850;SDS011;30583;48.714;9.386;2024-02-14T03:19:30;11.25;;;6.07;;
44850;SDS011;30583;48.714;9.386;2024-02-14T03:21:56;9.85;;;6.13;;
44850;SDS011;30583;48.714;9.386;2024-02-14T03:24:22;8.15;;;5.90;;
44850;SDS011;30583;48.714;9.386;2024-02-14T03:26:50;10.52;;;6.20;;
44850;SDS011;30583;48.714;9.386;2024-02-14T03:29:16;10.55;;;6.30;;
44850;SDS011;30583;48.714;9.386;2024-02-14T03:31:42;10.43;;;6.18;;
44850;SDS011;30583;48.714;9.386;2024-02-14T03:34:09;9.13;;;6.20;;
44850;SDS011;30583;48.714;9.386;2024-02-14T03:36:36;12.43;;;6.18;;
44850;SDS011;30583;48.714;9.386;2024-02-14T03:39:02;12.13;;;6.47;;
44850;SDS011;30583;48.714;9.386;2024-02-14T03:41:29;9.70;;;5.95;;
44850;SDS011;30583;48.714;9.386;2024-02-14T03:43:55;12.45;;;6.03;;
44850;SDS011;30583;48.714;9.386;2024-02-14T03:46:23;11.63;;;5.97;;
44850;SDS011;30583;48.714;9.386;2024-02-14T03:48:49;10.73;;;5.97;;
44850;SDS011;30583;48.714;9.386;2024-02-14T03:51:14;10.55;;;5.80;;
44850;SDS011;30583;48.714;9.386;2024-02-14T03:53:41;12.65;;;6.25;;
44850;SDS011;30583;48.714;9.386;2024-02-14T03:56:07;8.95;;;5.82;;
44850;SDS011;30583;48.714;9.386;2024-02-14T03:58:32;9.38;;;5.65;;
44850;SDS011;30583;48.714;9.386;2024-02-14T04:01:02;11.32;;;6.00;;
44850;SDS011;30583;48.714;9.386;2024-02-14T04:03:29;10.25;;;6.35;;
44850;SDS011;30583;48.714;9.386;2024-02-14T04:05:54;10.65;;;5.85;;
44850;SDS011;30583;48.714;9.386;2024-02-14T04:08:20;13.27;;;6.72;;
44850;SDS011;30583;48.714;9.386;2024-02-14T04:10:47;12.55;;;6.80;;
44850;SDS011;30583;48.714;9.386;2024-02-14T04:13:14;11.13;;;6.90;;
44850;SDS011;30583;48.714;9.386;2024-02-14T04:15:40;9.45;;;6.20;;
44850;SDS011;30583;48.714;9.386;2024-02-14T04:18:07;10.13;;;6.05;;
44850;SDS011;30583;48.714;9.386;2024-02-14T04:20:33;10.40;;;6.18;;
44850;SDS011;30583;48.714;9.386;2024-02-14T04:22:59;11.38;;;6.78;;
44850;SDS011;30583;48.714;9.386;2024-02-14T04:25:25;10.48;;;6.28;;
44850;SDS011;30583;48.714;9.386;2024-02-14T04:27:51;12.52;;;5.93;;
44850;SDS011;30583;48.714;9.386;2024-02-14T04:30:16;9.85;;;5.85;;
44850;SDS011;30583;48.714;9.386;2024-02-14T04:32:42;9.63;;;5.75;;
44850;SDS011;30583;48.714;9.386;2024-02-14T04:35:08;10.93;;;5.70;;
44850;SDS011;30583;48.714;9.386;2024-02-14T04:37:34;10.20;;;6.00;;
44850;SDS011;30583;48.714;9.386;2024-02-14T04:40:00;10.25;;;6.18;;
44850;SDS011;30583;48.714;9.386;2024-02-14T04:42:25;10.60;;;6.35;;
44850;SDS011;30583;48.714;9.386;2024-02-14T04:44:51;11.80;;;6.03;;
44850;SDS011;30583;48.714;9.386;2024-02-14T04:47:16;9.40;;;5.50;;
44850;SDS011;30583;48.714;9.386;2024-02-14T04:49:42;13.27;;;5.72;;
44850;SDS011;30583;48.714;9.386;2024-02-14T04:52:08;10.73;;;6.00;;
44850;SDS011;30583;48.714;9.386;2024-02-14T04:54:33;10.38;;;6.20;;
44850;SDS011;30583;48.714;9.386;2024-02-14T04:56:59;8.18;;;5.78;;
44850;SDS011;30583;48.714;9.386;2024-02-14T04:59:25;8.75;;;5.47;;
44850;SDS011;30583;48.714;9.386;2024-02-14T05:01:50;8.52;;;5.32;;
44850;SDS011;30583;48.714;9.386;2024-02-14T05:04:18;8.63;;;5.18;;
44850;SDS011;30583;48.714;9.386;2024-02-14T05:06:44;9.63;;;6.03;;
44850;SDS011;30583;48.714;9.386;2024-02-14T05:09:09;9.40;;;5.45;;
44850;SDS011;30583;48.714;9.386;2024-02-14T05:11:36;9.20;;;5.15;;
44850;SDS011;30583;48.714;9.386;2024-02-14T05:14:02;9.25;;;5.07;;
44850;SDS011;30583;48.714;9.386;2024-02-14T05:16:28;8.10;;;5.75;;
44850;SDS011;30583;48.714;9.386;2024-02-14T05:18:54;9.38;;;5.32;;
44850;SDS011;30583;48.714;9.386;2024-02-14T05:21:20;7.90;;;5.10;;
44850;SDS011;30583;48.714;9.386;2024-02-14T05:23:46;9.48;;;6.22;;
44850;SDS011;30583;48.714;9.386;2024-02-14T05:26:12;11.95;;;7.30;;
44850;SDS011;30583;48.714;9.386;2024-02-14T05:28:37;9.40;;;5.88;;
44850;SDS011;30583;48.714;9.386;2024-02-14T05:31:03;10.02;;;5.70;;
44850;SDS011;30583;48.714;9.386;2024-02-14T05:33:30;10.80;;;5.95;;
44850;SDS011;30583;48.714;9.386;2024-02-14T05:35:55;9.02;;;6.35;;
44850;SDS011;30583;48.714;9.386;2024-02-14T05:38:21;9.23;;;5.95;;
44850;SDS011;30583;48.714;9.386;2024-02-14T05:40:47;9.60;;;5.82;;
44850;SDS011;30583;48.714;9.386;2024-02-14T05:43:13;12.13;;;6.50;;
44850;SDS011;30583;48.714;9.386;2024-02-14T05:45:40;9.68;;;5.85;;
44850;SDS011;30583;48.714;9.386;2024-02-14T05:48:06;10.90;;;6.78;;
44850;SDS011;30583;48.714;9.386;2024-02-14T05:50:32;10.27;;;6.10;;
44850;SDS011;30583;48.714;9.386;2024-02-14T05:52:58;11.15;;;6.38;;
44850;SDS011;30583;48.714;9.386;2024-02-14T05:55:24;14.68;;;6.53;;
44850;SDS011;30583;48.714;9.386;2024-02-14T05:57:50;12.35;;;6.53;;
44850;SDS011;30583;48.714;9.386;2024-02-14T06:00:19;11.48;;;5.72;;
44850;SDS011;30583;48.714;9.386;2024-02-14T06:02:46;10.45;;;5.45;;
44850;SDS011;30583;48.714;9.386;2024-02-14T06:05:12;11.70;;;5.60;;
44850;SDS011;30583;48.714;9.386;2024-02-14T06:07:38;9.50;;;5.25;;
44850;SDS011;30583;48.714;9.386;2024-02-14T06:10:05;8.35;;;5.63;;
44850;SDS011;30583;48.714;9.386;2024-02-14T06:12:34;11.68;;;6.43;;
44850;SDS011;30583;48.714;9.386;2024-02-14T06:15:00;7.90;;;5.45;;
44850;SDS011;30583;48.714;9.386;2024-02-14T06:17:26;8.77;;;6.20;;
44850;SDS011;30583;48.714;9.386;2024-02-14T06:19:52;11.68;;;7.50;;
44850;SDS011;30583;48.714;9.386;2024-02-14T06:22:18;9.40;;;6.47;;
44850;SDS011;30583;48.714;9.386;2024-02-14T06:24:44;12.38;;;6.43;;
44850;SDS011;30583;48.714;9.386;2024-02-14T06:27:09;9.23;;;6.00;;
44850;SDS011;30583;48.714;9.386;2024-02-14T06:29:35;11.93;;;6.22;;
44850;SDS011;30583;48.714;9.386;2024-02-14T06:32:00;10.60;;;6.35;;
44850;SDS011;30583;48.714;9.386;2024-02-14T06:34:26;13.32;;;7.05;;
44850;SDS011;30583;48.714;9.386;2024-02-14T06:36:53;11.98;;;6.75;;
44850;SDS011;30583;48.714;9.386;2024-02-14T06:39:19;10.98;;;6.18;;
44850;SDS011;30583;48.714;9.386;2024-02-14T06:41:45;11.93;;;6.28;;
44850;SDS011;30583;48.714;9.386;2024-02-14T06:44:12;10.60;;;5.88;;
44850;SDS011;30583;48.714;9.386;2024-02-14T06:46:38;9.93;;;6.70;;
44850;SDS011;30583;48.714;9.386;2024-02-14T06:49:03;9.82;;;5.60;;
44850;SDS011;30583;48.714;9.386;2024-02-14T06:51:29;11.38;;;6.18;;
44850;SDS011;30583;48.714;9.386;2024-02-14T06:53:55;8.98;;;5.63;;
44850;SDS011;30583;48.714;9.386;2024-02-14T06:56:21;9.90;;;5.78;;
44850;SDS011;30583;48.714;9.386;2024-02-14T06:58:47;11.02;;;7.30;;
44850;SDS011;30583;48.714;9.386;2024-02-14T07:01:17;11.07;;;6.78;;
44850;SDS011;30583;48.714;9.386;2024-02-14T07:03:46;14.10;;;7.25;;
44850;SDS011;30583;48.714;9.386;2024-02-14T07:06:12;12.57;;;6.15;;
44850;SDS011;30583;48.714;9.386;2024-02-14T07:08:40;12.73;;;6.40;;
44850;SDS011;30583;48.714;9.386;2024-02-14T07:11:06;15.95;;;7.00;;
44850;SDS011;30583;48.714;9.386;2024-02-14T07:13:31;12.63;;;6.75;;
44850;SDS011;30583;48.714;9.386;2024-02-14T07:15:57;14.05;;;6.32;;
44850;SDS011;30583;48.714;9.386;2024-02-14T07:18:23;11.23;;;5.97;;
44850;SDS011;30583;48.714;9.386;2024-02-14T07:20:48;12.70;;;5.72;;
44850;SDS011;30583;48.714;9.386;2024-02-14T07:23:14;9.98;;;6.13;;
44850;SDS011;30583;48.714;9.386;2024-02-14T07:25:39;11.13;;;6.45;;
44850;SDS011;30583;48.714;9.386;2024-02-14T07:28:05;10.48;;;6.57;;
44850;SDS011;30583;48.714;9.386;2024-02-14T07:30:31;11.98;;;6.78;;
44850;SDS011;30583;48.714;9.386;2024-02-14T07:32:57;19.02;;;10.00;;
44850;SDS011;30583;48.714;9.386;2024-02-14T07:35:22;14.88;;;8.75;;
44850;SDS011;30583;48.714;9.386;2024-02-14T07:37:48;11.80;;;6.97;;
44850;SDS011;30583;48.714;9.386;2024-02-14T07:40:14;12.85;;;6.38;;
44850;SDS011;30583;48.714;9.386;2024-02-14T07:42:40;11.07;;;7.05;;
44850;SDS011;30583;48.714;9.386;2024-02-14T07:45:05;9.68;;;7.30;;
44850;SDS011;30583;48.714;9.386;2024-02-14T07:47:31;10.57;;;6.18;;
44850;SDS011;30583;48.714;9.386;2024-02-14T07:49:57;7.28;;;5.70;;
44850;SDS011;30583;48.714;9.386;2024-02-14T07:52:22;10.85;;;6.07;;
44850;SDS011;30583;48.714;9.386;2024-02-14T07:54:55;13.93;;;6.47;;
44850;SDS011;30583;48.714;9.386;2024-02-14T07:57:24;11.55;;;6.10;;
44850;SDS011;30583;48.714;9.386;2024-02-14T07:59:50;18.73;;;7.15;;
44850;SDS011;30583;48.714;9.386;2024-02-14T08:02:17;15.98;;;6.90;;
44850;SDS011;30583;48.714;9.386;2024-02-14T08:04:43;13.88;;;6.55;;
44850;SDS011;30583;48.714;9.386;2024-02-14T08:07:09;15.45;;;7.05;;
44850;SDS011;30583;48.714;9.386;2024-02-14T08:09:34;15.50;;;6.43;;
44850;SDS011;30583;48.714;9.386;2024-02-14T08:12:00;14.70;;;6.30;;
44850;SDS011;30583;48.714;9.386;2024-02-14T08:14:26;14.50;;;6.50;;
44850;SDS011;30583;48.714;9.386;2024-02-14T08:16:52;13.90;;;7.10;;
44850;SDS011;30583;48.714;9.386;2024-02-14T08:19:18;16.40;;;6.47;;
44850;SDS011;30583;48.714;9.386;2024-02-14T08:21:43;12.25;;;6.22;;
44850;SDS011;30583;48.714;9.386;2024-02-14T08:24:12;8.73;;;6.07;;
44850;SDS011;30583;48.714;9.386;2024-02-14T08:26:38;11.55;;;7.40;;
44850;SDS011;30583;48.714;9.386;2024-02-14T08:29:04;15.13;;;8.75;;
44850;SDS011;30583;48.714;9.386;2024-02-14T08:31:29;18.85;;;10.90;;
44850;SDS011;30583;48.714;9.386;2024-02-14T08:33:55;23.58;;;12.48;;
44850;SDS011;30583;48.714;9.386;2024-02-14T08:36:21;16.05;;;8.50;;
44850;SDS011;30583;48.714;9.386;2024-02-14T08:38:47;11.20;;;6.78;;
44850;SDS011;30583;48.714;9.386;2024-02-14T08:41:13;12.70;;;6.95;;
44850;SDS011;30583;48.714;9.386;2024-02-14T08:43:39;12.93;;;6.75;;
44850;SDS011;30583;48.714;9.386;2024-02-14T08:46:09;11.35;;;6.40;;
44850;SDS011;30583;48.714;9.386;2024-02-14T08:48:36;10.52;;;6.35;;
44850;SDS011;30583;48.714;9.386;2024-02-14T08:51:05;10.20;;;6.00;;
44850;SDS011;30583;48.714;9.386;2024-02-14T08:53:31;9.27;;;6.10;;
44850;SDS011;30583;48.714;9.386;2024-02-14T08:55:57;14.80;;;6.65;;
44850;SDS011;30583;48.714;9.386;2024-02-14T08:58:23;11.25;;;6.35;;
44850;SDS011;30583;48.714;9.386;2024-02-14T09:00:49;11.50;;;5.88;;
44850;SDS011;30583;48.714;9.386;2024-02-14T09:03:14;10.55;;;5.47;;
44850;SDS011;30583;48.714;9.386;2024-02-14T09:05:40;10.32;;;5.10;;
44850;SDS011;30583;48.714;9.386;2024-02-14T09:08:06;10.13;;;5.20;;
44850;SDS011;30583;48.714;9.386;2024-02-14T09:10:31;12.52;;;5.72;;
44850;SDS011;30583;48.714;9.386;2024-02-14T09:12:58;11.15;;;5.25;;
44850;SDS011;30583;48.714;9.386;2024-02-14T09:15:23;8.23;;;4.63;;
44850;SDS011;30583;48.714;9.386;2024-02-14T09:17:49;10.00;;;5.10;;
44850;SDS011;30583;48.714;9.386;2024-02-14T09:20:14;9.32;;;5.10;;
44850;SDS011;30583;48.714;9.386;2024-02-14T09:22:40;11.90;;;5.18;;
44850;SDS011;30583;48.714;9.386;2024-02-14T09:25:08;9.05;;;5.15;;
44850;SDS011;30583;48.714;9.386;2024-02-14T09:27:34;8.40;;;5.10;;
44850;SDS011;30583;48.714;9.386;2024-02-14T09:30:00;8.25;;;4.90;;
44850;SDS011;30583;48.714;9.386;2024-02-14T09:32:28;8.32;;;4.85;;
44850;SDS011;30583;48.714;9.386;2024-02-14T09:34:55;7.72;;;4.47;;
44850;SDS011;30583;48.714;9.386;2024-02-14T09:37:21;9.73;;;4.90;;
44850;SDS011;30583;48.714;9.386;2024-02-14T09:39:47;9.75;;;5.15;;
44850;SDS011;30583;48.714;9.386;2024-02-14T09:42:13;12.82;;;5.55;;
44850;SDS011;30583;48.714;9.386;2024-02-14T09:44:41;12.15;;;5.93;;
44850;SDS011;30583;48.714;9.386;2024-02-14T09:47:07;11.43;;;6.05;;
44850;SDS011;30583;48.714;9.386;2024-02-14T09:49:34;12.77;;;6.55;;
44850;SDS011;30583;48.714;9.386;2024-02-14T09:52:01;11.75;;;5.70;;
44850;SDS011;30583;48.714;9.386;2024-02-14T09:54:28;11.52;;;6.22;;
44850;SDS011;30583;48.714;9.386;2024-02-14T09:56:56;11.77;;;5.80;;
44850;SDS011;30583;48.714;9.386;2024-02-14T09:59:23;15.70;;;7.63;;
44850;SDS011;30583;48.714;9.386;2024-02-14T10:01:49;11.18;;;5.93;;
44850;SDS011;30583;48.714;9.386;2024-02-14T10:04:16;13.27;;;6.80;;
44850;SDS011;30583;48.714;9.386;2024-02-14T10:06:44;12.25;;;6.78;;
44850;SDS011;30583;48.714;9.386;2024-02-14T10:09:10;15.73;;;7.25;;
44850;SDS011;30583;48.714;9.386;2024-02-14T10:11:36;11.73;;;6.22;;
44850;SDS011;30583;48.714;9.386;2024-02-14T10:14:04;19.13;;;7.15;;
44850;SDS011;30583;48.714;9.386;2024-02-14T10:16:34;17.95;;;6.38;;
44850;SDS011;30583;48.714;9.386;2024-02-14T10:19:00;13.05;;;5.95;;
44850;SDS011;30583;48.714;9.386;2024-02-14T10:21:26;12.02;;;5.30;;
44850;SDS011;30583;48.714;9.386;2024-02-14T10:23:53;9.82;;;5.03;;
44850;SDS011;30583;48.714;9.386;2024-02-14T10:26:21;11.10;;;5.15;;
44850;SDS011;30583;48.714;9.386;2024-02-14T10:28:47;9.52;;;4.75;;
44850;SDS011;30583;48.714;9.386;2024-02-14T10:31:14;8.88;;;4.57;;
44850;SDS011;30583;48.714;9.386;2024-02-14T10:33:40;10.65;;;4.63;;
44850;SDS011;30583;48.714;9.386;2024-02-14T10:36:09;10.15;;;4.93;;
44850;SDS011;30583;48.714;9.386;2024-02-14T10:38:37;13.23;;;4.95;;
44850;SDS011;30583;48.714;9.386;2024-02-14T10:41:05;8.18;;;4.43;;
44850;SDS011;30583;48.714;9.386;2024-02-14T10:43:30;11.13;;;4.03;;
44850;SDS011;30583;48.714;9.386;2024-02-14T10:45:58;8.40;;;3.90;;
44850;SDS011;30583;48.714;9.386;2024-02-14T10:48:27;13.40;;;6.88;;
44850;SDS011;30583;48.714;9.386;2024-02-14T10:50:58;11.23;;;5.75;;
44850;SDS011;30583;48.714;9.386;2024-02-14T10:53:26;11.90;;;4.32;;
44850;SDS011;30583;48.714;9.386;2024-02-14T10:55:58;7.55;;;3.50;;
44850;SDS011;30583;48.714;9.386;2024-02-14T10:58:25;8.30;;;2.80;;
44850;SDS011;30583;48.714;9.386;2024-02-14T11:00:54;4.13;;;1.63;;
44850;SDS011;30583;48.714;9.386;2024-02-14T11:03:21;6.10;;;2.45;;
44850;SDS011;30583;48.714;9.386;2024-02-14T11:05:48;6.50;;;2.50;;
44850;SDS011;30583;48.714;9.386;2024-02-14T11:08:23;3.97;;;1.77;;
44850;SDS011;30583;48.714;9.386;2024-02-14T11:10:54;3.50;;;1.33;;
44850;SDS011;30583;48.714;9.386;2024-02-14T11:13:21;4.07;;;1.08;;
44850;SDS011;30583;48.714;9.386;2024-02-14T11:15:51;5.07;;;1.50;;
44850;SDS011;30583;48.714;9.386;2024-02-14T11:18:25;6.63;;;4.43;;
44850;SDS011;30583;48.714;9.386;2024-02-14T11:20:55;5.78;;;1.80;;
44850;SDS011;30583;48.714;9.386;2024-02-14T11:23:23;3.80;;;1.52;;
44850;SDS011;30583;48.714;9.386;2024-02-14T11:25:49;2.80;;;1.20;;
44850;SDS011;30583;48.714;9.386;2024-02-14T11:28:15;2.30;;;0.90;;
44850;SDS011;30583;48.714;9.386;2024-02-14T11:30:42;1.77;;;1.30;;
44850;SDS011;30583;48.714;9.386;2024-02-14T11:33:15;4.55;;;1.45;;
44850;SDS011;30583;48.714;9.386;2024-02-14T11:35:46;6.07;;;1.30;;
44850;SDS011;30583;48.714;9.386;2024-02-14T11:38:16;3.47;;;1.00;;
44850;SDS011;30583;48.714;9.386;2024-02-14T11:40:43;3.17;;;1.05;;
44850;SDS011;30583;48.714;9.386;2024-02-14T11:45:38;2.60;;;1.30;;
44850;SDS011;30583;48.714;9.386;2024-02-14T11:48:06;2.53;;;1.30;;
44850;SDS011;30583;48.714;9.386;2024-02-14T11:50:33;2.05;;;0.93;;
44850;SDS011;30583;48.714;9.386;2024-02-14T11:52:59;1.92;;;1.00;;
44850;SDS011;30583;48.714;9.386;2024-02-14T11:55:28;2.72;;;1.27;;
44850;SDS011;30583;48.714;9.386;2024-02-14T11:57:55;1.98;;;0.90;;
44850;SDS011;30583;48.714;9.386;2024-02-14T12:00:21;2.47;;;0.82;;
44850;SDS011;30583;48.714;9.386;2024-02-14T12:02:47;3.05;;;1.27;;
44850;SDS011;30583;48.714;9.386;2024-02-14T12:05:14;2.25;;;1.10;;
44850;SDS011;30583;48.714;9.386;2024-02-14T12:07:40;5.18;;;2.28;;
44850;SDS011;30583;48.714;9.386;2024-02-14T12:10:06;4.95;;;1.52;;
44850;SDS011;30583;48.714;9.386;2024-02-14T12:12:34;3.45;;;1.75;;
44850;SDS011;30583;48.714;9.386;2024-02-14T12:15:01;4.05;;;1.10;;
44850;SDS011;30583;48.714;9.386;2024-02-14T12:17:27;2.17;;;1.15;;
44850;SDS011;30583;48.714;9.386;2024-02-14T12:19:52;1.52;;;1.00;;
44850;SDS011;30583;48.714;9.386;2024-02-14T12:22:18;2.80;;;1.10;;
44850;SDS011;30583;48.714;9.386;2024-02-14T12:24:44;2.33;;;1.13;;
44850;SDS011;30583;48.714;9.386;2024-02-14T12:27:12;2.75;;;1.15;;
44850;SDS011;30583;48.714;9.386;2024-02-14T12:29:38;1.70;;;0.90;;
44850;SDS011;30583;48.714;9.386;2024-02-14T12:32:06;2.55;;;1.20;;
44850;SDS011;30583;48.714;9.386;2024-02-14T12:34:32;3.10;;;1.20;;
44850;SDS011;30583;48.714;9.386;2024-02-14T12:36:58;2.85;;;1.10;;
44850;SDS011;30583;48.714;9.386;2024-02-14T12:39:26;3.03;;;0.93;;
44850;SDS011;30583;48.714;9.386;2024-02-14T12:41:52;1.48;;;0.70;;
44850;SDS011;30583;48.714;9.386;2024-02-14T12:44:18;1.67;;;0.90;;
44850;SDS011;30583;48.714;9.386;2024-02-14T12:46:43;2.03;;;0.90;;
44850;SDS011;30583;48.714;9.386;2024-02-14T12:49:09;3.15;;;0.90;;
44850;SDS011;30583;48.714;9.386;2024-02-14T12:51:36;3.90;;;1.77;;
44850;SDS011;30583;48.714;9.386;2024-02-14T12:54:03;7.05;;;3.92;;
44850;SDS011;30583;48.714;9.386;2024-02-14T12:56:29;9.73;;;5.68;;
44850;SDS011;30583;48.714;9.386;2024-02-14T12:58:55;4.25;;;1.88;;
44850;SDS011;30583;48.714;9.386;2024-02-14T13:01:20;4.00;;;1.65;;
44850;SDS011;30583;48.714;9.386;2024-02-14T13:03:46;4.65;;;2.08;;
44850;SDS011;30583;48.714;9.386;2024-02-14T13:06:11;3.55;;;1.73;;
44850;SDS011;30583;48.714;9.386;2024-02-14T13:08:39;1.40;;;0.70;;
44850;SDS011;30583;48.714;9.386;2024-02-14T13:11:04;1.35;;;0.75;;
44850;SDS011;30583;48.714;9.386;2024-02-14T13:13:30;1.80;;;0.60;;
44850;SDS011;30583;48.714;9.386;2024-02-14T13:15:56;1.65;;;0.80;;
44850;SDS011;30583;48.714;9.386;2024-02-14T13:18:21;4.88;;;0.90;;
44850;SDS011;30583;48.714;9.386;2024-02-14T13:20:47;1.50;;;0.80;;
44850;SDS011;30583;48.714;9.386;2024-02-14T13:23:13;6.57;;;1.00;;
44850;SDS011;30583;48.714;9.386;2024-02-14T13:25:39;2.60;;;1.00;;
44850;SDS011;30583;48.714;9.386;2024-02-14T13:28:05;1.70;;;0.40;;
44850;SDS011;30583;48.714;9.386;2024-02-14T13:30:31;2.38;;;0.70;;
44850;SDS011;30583;48.714;9.386;2024-02-14T13:32:57;8.57;;;3.92;;
44850;SDS011;30583;48.714;9.386;2024-02-14T13:35:23;5.30;;;2.17;;
44850;SDS011;30583;48.714;9.386;2024-02-14T13:37:49;2.05;;;1.05;;
44850;SDS011;30583;48.714;9.386;2024-02-14T13:40:15;2.00;;;0.65;;
44850;SDS011;30583;48.714;9.386;2024-02-14T13:42:40;3.63;;;1.20;;
44850;SDS011;30583;48.714;9.386;2024-02-14T13:45:06;1.45;;;0.80;;
44850;SDS011;30583;48.714;9.386;2024-02-14T13:47:39;1.70;;;0.45;;
44850;SDS011;30583;48.714;9.386;2024-02-14T13:50:08;0.82;;;0.47;;
44850;SDS011;30583;48.714;9.386;2024-02-14T13:52:35;2.15;;;0.40;;
44850;SDS011;30583;48.714;9.386;2024-02-14T13:55:03;1.42;;;0.60;;
44850;SDS011;30583;48.714;9.386;2024-02-14T13:57:30;2.40;;;0.73;;
44850;SDS011;30583;48.714;9.386;2024-02-14T13:59:57;1.42;;;0.70;;
44850;SDS011;30583;48.714;9.386;2024-02-14T14:02:22;1.80;;;0.40;;
44850;SDS011;30583;48.714;9.386;2024-02-14T14:04:48;1.23;;;0.60;;
44850;SDS011;30583;48.714;9.386;2024-02-14T14:07:14;0.65;;;0.30;;
44850;SDS011;30583;48.714;9.386;2024-02-14T14:09:39;2.08;;;0.50;;
44850;SDS011;30583;48.714;9.386;2024-02-14T14:12:05;4.10;;;0.93;;
44850;SDS011;30583;48.714;9.386;2024-02-14T14:14:31;1.05;;;0.43;;
44850;SDS011;30583;48.714;9.386;2024-02-14T14:16:56;2.65;;;0.70;;
44850;SDS011;30583;48.714;9.386;2024-02-14T14:19:22;1.08;;;0.60;;
44850;SDS011;30583;48.714;9.386;2024-02-14T14:21:48;2.15;;;0.55;;
44850;SDS011;30583;48.714;9.386;2024-02-14T14:24:13;7.40;;;4.10;;
44850;SDS011;30583;48.714;9.386;2024-02-14T14:26:40;4.97;;;2.83;;
44850;SDS011;30583;48.714;9.386;2024-02-14T14:29:06;3.58;;;1.40;;
44850;SDS011;30583;48.714;9.386;2024-02-14T14:31:31;4.15;;;1.17;;
44850;SDS011;30583;48.714;9.386;2024-02-14T14:34:00;2.25;;;1.00;;
44850;SDS011;30583;48.714;9.386;2024-02-14T14:36:26;2.40;;;0.90;;
44850;SDS011;30583;48.714;9.386;2024-02-14T14:38:51;1.95;;;0.70;;